76°F
Crown Heights Area, Poughkeepsie, NY, USA
UpdatedJun-22-2017 10:16 
 

Nearby METAR Reports

 

KPOU - Poughkeepsie, New York, USA
Distance from station: ENE 2mi, 4km
Updated: Thu, 22-Jun-2017 9:53am EDT
Clear
Clear
 Wind from calm
Wind: Calm
Temperature: 72°F , 22°C
Dew Point: 57°F , 14°C
Humidity: 61%
Barometer: 30.00 inHg , 1015.9 hPa
Clouds: Clear
Visibility: 10 miles , 16 km
2017/06/22 13:53 KPOU 221353Z 00000KT 10SM CLR 22/14 A3000 RMK AO2 SLP155 T02220139
KSWF - Newburgh/Stewart, New York, USA
Distance from station: SW 12mi, 19km
Updated: Thu, 22-Jun-2017 9:45am EDT
Clear
Clear
 Wind from calm
Wind: Calm
Temperature: 72°F , 22°C
Dew Point: 57°F , 14°C
Humidity: 61%
Barometer: 30.04 inHg , 1017.3 hPa
Clouds: Clear
Visibility: 20 miles , 32 km
2017/06/22 13:45 KSWF 221345Z 00000KT 20SM SKC 22/14 A3004
 
KMGJ - Montgomery, New York, USA
Distance from station: WSW 19mi, 31km
Updated: Thu, 22-Jun-2017 9:54am EDT
Clear
Clear
 Wind from calm
Wind: Calm
Temperature: 73°F , 23°C
Dew Point: 57°F , 14°C
Humidity: 57%
Barometer: 30.01 inHg , 1016.3 hPa
Clouds: Clear
Visibility: 10 miles , 16 km
2017/06/22 13:54 KMGJ 221354Z AUTO 00000KT 10SM CLR 23/14 A3001 RMK AO2 PRESFR SLP160 T02280139 TSNO
KDXR - Danbury, Connecticut, USA
Distance from station: SE 29mi, 46km
Updated: Thu, 22-Jun-2017 9:53am EDT
Clear
Clear
 Wind from varies
Wind: varies 3 mph , 6 km/h
Temperature: 73°F , 23°C
Dew Point: 54°F , 12°C
Humidity: 50%
Barometer: 30.03 inHg , 1016.9 hPa
Clouds: Clear
Visibility: 10 miles , 16 km
2017/06/22 13:53 KDXR 221353Z VRB03KT 10SM CLR 23/12 A3003 RMK AO2 SLP167 T02280122
 
KHPN - White Plains, New York, USA
Distance from station: SSE 40mi, 64km
Updated: Thu, 22-Jun-2017 9:56am EDT
Clear
Clear
 Wind from NNW
Wind: NNW 3 mph , 6 km/h
Temperature: 75°F , 24°C
Dew Point: 54°F , 12°C
Humidity: 47%
Barometer: 30.02 inHg , 1016.6 hPa
Clouds: Clear
Visibility: 10 miles , 16 km
2017/06/22 13:56 KHPN 221356Z 34003KT 10SM CLR 24/12 A3002 RMK SLP159
KOXC - Oxford/Waterbury, Connecticut, USA
Distance from station: ESE 42mi, 68km
Updated: Thu, 22-Jun-2017 9:50am EDT
Mostly cloudy
Mostly cloudy
 Wind from N
Wind: N 5 mph , 7 km/h
Temperature: 72°F , 22°C
Dew Point: 54°F , 12°C
Humidity: 53%
Barometer: 30.04 inHg , 1017.3 hPa
Clouds: Mostly cloudy
Visibility: 10 miles , 16 km
Cloud details: Mostly cloudy 25000 ft
2017/06/22 13:50 KOXC 221350Z 01004KT 10SM BKN250 22/12 A3004
 
KMSV - Monticello, New York, USA
Distance from station: W 45mi, 72km
Updated: Thu, 22-Jun-2017 10:15am EDT
Clear
Clear
 Wind from calm
Wind: Calm
Temperature: 70°F , 21°C
Dew Point: 55°F , 13°C
Humidity: 60%
Barometer: 30.05 inHg , 1017.6 hPa
Clouds: Clear
Visibility: 10 miles , 16 km
2017/06/22 14:15 KMSV 221415Z AUTO 00000KT 10SM CLR 21/13 A3005 RMK AO1
KFWN - Sussex, New Jersey, USA
Distance from station: SW 47mi, 75km
Updated: Thu, 22-Jun-2017 9:53am EDT
Clear
Clear
 Wind from SE
Wind: SE 5 mph , 7 km/h
Temperature: 72°F , 22°C
Dew Point: 59°F , 15°C
Humidity: 65%
Barometer: 30.02 inHg , 1016.6 hPa
Clouds: Clear
Visibility: 10 miles , 16 km
2017/06/22 13:53 KFWN 221353Z AUTO 14004KT 10SM CLR 22/15 A3002 RMK AO2 RAB1258E08 SLP162 P0000 T02220150